Latest Weather Observations for Neptune Island

IDS60801

Issued at 11:05 pm CST Monday 1 September 2014 (issued every 30 minutes, with the page automatically refreshed every 10 minutes)

About weather observations | Map of weather stations | Latest weather observations for SA | Other Formats
Station Details ID: 018115 Name: NEPTUNE ISLAND Lat: -35.34 Lon: 136.12 Height: 32.0 m
Data from the previous 72 hours. | See also: Recent months at Neptune Island
Date/Time
CST
Temp
°C
App
Temp
°C
Dew
Point
Rel
Hum
%
Delta-T
°C
Wind Press
QNH
hPa
Press
MSL
hPa
Rain
since 9 am
mm
Dir
 
Spd
km/h
Gust
km/h
Spd
kts
Gust
kts
01/11:03pm 11.8 2.1 7.3 74 2.2 SSW 48 67 26 36 1021.2 1021.2 0.2
01/11:00pm 11.5 1.3 6.8 73 2.2 SSW 50 67 27 36 1021.2 1021.2 0.2
01/10:30pm 12.1 1.4 6.4 68 2.7 SW 52 63 28 34 1021.1 1021.1 0.2
01/10:18pm 11.4 0.2 5.7 68 2.6 SW 54 72 29 39 1021.2 1021.2 0.2
01/10:00pm 12.3 2.0 6.6 68 2.7 SW 50 57 27 31 1020.8 1020.8 0.2
01/09:30pm 11.9 2.0 6.6 70 2.5 SSW 48 59 26 32 1020.7 1020.7 0.2
01/09:00pm 11.2 -0.3 6.3 72 2.3 SW 56 74 30 40 1020.0 1020.0 0.2
01/08:57pm 12.2 1.2 6.9 70 2.5 SW 54 74 29 40 1019.8 1019.8 0.2
01/08:30pm 12.2 1.2 4.9 61 3.3 SW 52 65 28 35 1019.5 1019.5 0.2
01/08:00pm 12.2 1.2 6.7 69 2.6 SW 54 65 29 35 1019.1 1019.1 0.2
01/07:30pm 12.1 0.3 5.7 65 3.0 SW 57 70 31 38 1018.7 1018.7 0.2
01/07:00pm 11.8 -0.4 5.4 65 3.0 SW 59 69 32 37 1018.3 1018.2 0.2
01/06:30pm 11.9 -0.2 4.2 59 3.5 SSW 57 70 31 38 1017.5 1017.4 0.2
01/06:00pm 12.2 0.3 4.4 59 3.5 SSW 56 70 30 38 1017.1 1017.0 0.2
01/05:34pm 12.4 2.8 6.2 66 2.9 SW 46 65 25 35 1016.6 1016.5 0.0
01/05:30pm 12.2 3.3 6.7 69 2.6 SW 43 56 23 30 1016.5 1016.4 0.0
01/05:24pm 11.2 2.4 5.5 68 2.6 SW 41 46 22 25 1016.7 1016.6 0.0
01/05:23pm 11.3 -0.8 6.0 70 2.5 SW 59 78 32 42 1016.6 1016.5 0.0
01/05:12pm 11.8 0.2 6.5 70 2.5 SW 57 65 31 35 1016.2 1016.1 0.0
01/05:00pm 11.9 3.8 6.8 71 2.4 SW 39 48 21 26 1016.5 1016.4 0.0
01/04:30pm 12.3 1.8 5.7 64 3.1 SW 50 59 27 32 1016.0 1015.9 0.0
01/04:16pm 11.8 -0.4 5.4 65 3.0 SSW 59 78 32 42 1015.7 1015.6 0.0
01/04:00pm 11.7 0.1 6.6 71 2.4 SSW 57 74 31 40 1015.5 1015.4 0.0
01/03:43pm 11.6 -2.5 5.5 66 2.8 SW 69 76 37 41 1015.0 1015.0 0.0
01/03:42pm 12.1 2.4 5.7 65 3.0 SW 46 74 25 40 1015.1 1015.1 0.0
01/03:30pm 13.6 4.6 6.5 62 3.4 SW 43 54 23 29 1015.0 1015.0 0.0
01/03:00pm 13.5 4.4 6.6 63 3.3 SW 44 50 24 27 1014.8 1014.8 0.0
01/02:30pm 13.8 4.8 7.3 65 3.2 SW 44 52 24 28 1014.5 1014.5 0.0
01/02:00pm 13.6 4.9 8.4 71 2.6 SW 44 56 24 30 1014.4 1014.4 0.0
01/01:31pm 13.4 4.6 8.0 70 2.7 WSW 44 67 24 36 1014.1 1014.1 0.0
01/01:30pm 13.6 4.6 7.4 66 3.0 WSW 44 56 24 30 1014.3 1014.3 0.0
01/01:00pm 13.4 6.2 7.6 68 2.8 WSW 35 43 19 23 1014.6 1014.6 0.0
01/12:30pm 13.6 6.8 7.6 67 2.9 WSW 33 39 18 21 1014.7 1014.7 0.0
01/12:00pm 12.6 3.4 7.9 73 2.3 WSW 46 57 25 31 1014.7 1014.7 0.0
01/11:34am 13.7 2.4 8.1 69 2.8 WSW 57 61 31 33 1014.4 1014.4 0.0
01/11:32am 14.5 7.2 7.3 62 3.5 WSW 35 63 19 34 1014.5 1014.5 0.0
01/11:30am 14.9 7.9 7.0 59 3.9 WSW 33 39 18 21 1014.6 1014.6 0.0
01/11:00am 14.5 7.0 6.1 57 4.0 WSW 35 39 19 21 1014.5 1014.5 0.0
01/10:30am 13.8 7.2 7.6 66 3.1 SW 32 37 17 20 1014.5 1014.5 0.0
01/10:00am 13.3 6.8 6.4 63 3.3 WSW 30 35 16 19 1014.5 1014.5 0.0
01/09:30am 13.7 7.2 6.3 61 3.5 WSW 30 35 16 19 1014.4 1014.4 0.0
01/09:00am 13.6 6.2 6.9 64 3.2 SW 35 43 19 23 1014.2 1014.2 2.6
01/08:30am 13.2 5.4 6.5 64 3.2 WSW 37 44 20 24 1014.0 1014.0 2.6
01/08:00am 13.0 6.0 7.0 67 2.9 SW 33 39 18 21 1013.8 1013.8 2.6
01/07:30am 12.7 5.6 6.5 66 3.0 SW 33 39 18 21 1013.2 1013.2 2.6
01/07:00am 12.6 5.7 7.1 69 2.7 SW 33 43 18 23 1012.9 1012.9 2.6
01/06:30am 12.8 5.2 7.5 70 2.6 SW 37 43 20 23 1012.7 1012.7 2.6
01/06:00am 12.7 6.0 8.0 73 2.3 SW 33 41 18 22 1012.3 1012.3 2.6
01/05:30am 12.5 7.0 9.0 79 1.8 SW 28 33 15 18 1012.1 1012.1 2.6
01/05:03am 11.9 5.9 8.7 81 1.6 SW 30 48 16 26 1012.1 1012.1 2.6
01/05:00am 11.8 4.8 8.5 80 1.6 SW 35 48 19 26 1012.0 1012.0 2.6
01/04:30am 12.8 5.8 8.5 75 2.1 SW 35 41 19 22 1011.6 1011.6 2.6
01/04:00am 13.1 6.5 8.4 73 2.3 SW 33 39 18 21 1011.3 1011.3 2.6
01/03:30am 13.1 7.6 9.0 76 2.1 SW 28 35 15 19 1011.2 1011.2 2.6
01/03:00am 12.8 7.3 9.1 78 1.9 SSW 28 35 15 19 1011.1 1011.1 2.6
01/02:30am 12.7 5.7 9.9 83 1.4 SSW 37 46 20 25 1011.2 1011.2 2.6
01/02:00am 13.3 6.0 10.1 81 1.7 SW 39 46 21 25 1011.0 1011.0 2.6
01/01:30am 13.3 5.3 10.5 83 1.5 SW 43 50 23 27 1011.3 1011.3 2.6
01/01:00am 12.9 6.1 10.8 87 1.1 SW 37 46 20 25 1011.5 1011.5 2.6
01/12:30am 13.3 7.6 11.0 86 1.2 SW 32 48 17 26 1011.1 1011.1 2.4
01/12:28am 13.2 8.1 10.7 85 1.3 SW 28 46 15 25 1011.1 1011.1 2.4
01/12:00am 13.7 8.3 10.9 83 1.5 WSW 30 35 16 19 1011.4 1011.4 1.2
 
Date/Time
CST
Temp
°C
App
Temp
°C
Dew
Point
Rel
Hum
%
Delta-T
°C
Wind Press
QNH
hPa
Press
MSL
hPa
Rain
since 9 am
mm
Dir
 
Spd
km/h
Gust
km/h
Spd
kts
Gust
kts
31/11:30pm 14.1 7.8 10.9 81 1.7 WSW 35 39 19 21 1011.5 1011.5 1.0
31/11:00pm 14.2 8.2 10.8 80 1.8 WSW 33 41 18 22 1011.2 1011.2 1.0
31/10:30pm 14.2 7.8 10.8 80 1.8 SW 35 41 19 22 1011.2 1011.2 1.0
31/10:00pm 14.2 7.9 11.0 81 1.7 SW 35 41 19 22 1011.0 1011.0 1.0
31/09:30pm 14.2 7.9 11.2 82 1.6 SW 35 43 19 23 1011.1 1011.1 1.0
31/09:00pm 14.3 8.6 11.3 82 1.6 WSW 32 37 17 20 1010.9 1010.9 1.0
31/08:30pm 14.1 9.4 10.7 80 1.8 WSW 26 30 14 16 1010.8 1010.8 1.0
31/08:00pm 14.1 9.1 10.9 81 1.7 WSW 28 33 15 18 1011.0 1011.0 1.0
31/07:30pm 13.9 8.6 11.1 83 1.5 WSW 30 41 16 22 1011.1 1011.1 1.0
31/07:00pm 14.0 10.0 11.7 86 1.2 WSW 24 30 13 16 1011.2 1011.2 0.8
31/06:30pm 13.8 8.3 11.7 87 1.1 WSW 32 37 17 20 1010.8 1010.8 0.8
31/06:00pm 14.3 8.8 11.8 85 1.3 WSW 32 35 17 19 1010.5 1010.5 0.2
31/05:30pm 14.4 8.8 11.6 83 1.5 WSW 32 35 17 19 1010.0 1010.0 0.0
31/05:00pm 14.6 8.1 11.6 82 1.6 WSW 37 44 20 24 1009.8 1009.8 0.0
31/04:30pm 15.0 8.2 12.1 83 1.6 WSW 39 46 21 25 1009.3 1009.3 0.0
31/04:00pm 15.5 8.7 12.1 80 1.9 WSW 39 44 21 24 1009.1 1009.1 0.0
31/03:30pm 16.2 10.2 12.2 77 2.2 W 35 43 19 23 1008.8 1008.8 0.0
31/03:00pm 16.6 10.9 11.3 71 2.9 W 32 37 17 20 1008.8 1008.8 0.0
31/02:30pm 16.7 10.1 9.9 64 3.6 WNW 35 43 19 23 1009.3 1009.3 0.0
31/02:00pm 16.4 10.9 9.3 63 3.7 WNW 28 33 15 18 1009.3 1009.3 0.0
31/01:30pm 16.5 12.5 9.0 61 3.9 NNW 20 26 11 14 1009.6 1009.6 0.0
31/01:00pm 16.6 11.9 9.1 61 3.9 NW 24 30 13 16 1009.9 1009.9 0.0
31/12:30pm 16.3 11.5 9.0 62 3.8 NW 24 28 13 15 1010.4 1010.4 0.0
31/12:12pm 16.4 10.7 8.4 59 4.1 NNW 28 33 15 18 1010.7 1010.7 0.0
31/12:00pm 16.5 14.3 9.4 63 3.7 NW 11 15 6 8 1010.3 1010.3 0.0
31/11:30am 16.8 13.2 8.2 57 4.4 NNW 17 22 9 12 1010.2 1010.2 0.0
31/11:00am 16.2 11.2 7.9 58 4.2 NNW 24 33 13 18 1011.0 1011.0 0.0
31/10:30am 16.1 10.1 8.6 61 3.8 N 30 37 16 20 1011.7 1011.7 0.0
31/10:00am 16.1 11.7 9.1 63 3.6 NNW 22 26 12 14 1011.8 1011.8 0.0
31/09:30am 16.3 12.2 10.2 67 3.2 N 22 28 12 15 1012.3 1012.3 0.0
31/09:00am 16.0 11.0 9.7 66 3.3 N 26 30 14 16 1012.6 1012.6 0.0
31/08:30am 15.7 11.1 10.9 73 2.6 N 26 28 14 15 1012.1 1012.1 0.0
31/08:00am 15.7 11.1 9.8 68 3.1 N 24 30 13 16 1011.8 1011.8 0.0
31/07:30am 15.4 12.5 11.0 75 2.3 N 17 20 9 11 1011.9 1011.9 0.0
31/07:00am 15.5 10.9 10.9 74 2.4 N 26 33 14 18 1011.6 1011.6 0.0
31/06:30am 15.6 11.0 9.7 68 3.1 N 24 28 13 15 1011.4 1011.4 0.0
31/06:00am 15.8 11.4 9.0 64 3.5 N 22 26 12 14 1012.0 1012.0 0.0
31/05:30am 16.0 10.5 7.5 57 4.2 N 26 30 14 16 1012.1 1012.1 0.0
31/05:00am 15.8 10.6 9.0 64 3.5 N 26 30 14 16 1012.1 1012.1 0.0
31/04:30am 15.9 11.2 9.1 64 3.5 N 24 28 13 15 1011.9 1011.9 0.0
31/04:00am 15.8 12.4 10.6 71 2.8 NW 19 24 10 13 1012.5 1012.5 0.0
31/03:30am 15.9 12.3 10.7 71 2.8 NW 20 26 11 14 1012.7 1012.7 0.0
31/03:00am 16.1 10.6 9.1 63 3.6 N 28 35 15 19 1012.7 1012.7 0.0
31/02:30am 16.4 10.1 9.1 62 3.8 N 32 35 17 19 1012.4 1012.4 0.0
31/02:00am 16.4 10.6 9.6 64 3.5 N 30 33 16 18 1012.8 1012.8 0.0
31/01:30am 16.5 10.3 9.2 62 3.8 N 32 33 17 18 1013.0 1013.0 0.0
31/01:00am 16.7 10.1 8.7 59 4.1 N 33 39 18 21 1012.8 1012.8 0.0
31/12:30am 16.3 11.1 10.2 67 3.2 N 28 33 15 18 1013.1 1013.1 0.0
31/12:00am 16.1 10.9 10.2 68 3.1 N 28 33 15 18 1013.3 1013.3 0.0
 
Date/Time
CST
Temp
°C
App
Temp
°C
Dew
Point
Rel
Hum
%
Delta-T
°C
Wind Press
QNH
hPa
Press
MSL
hPa
Rain
since 9 am
mm
Dir
 
Spd
km/h
Gust
km/h
Spd
kts
Gust
kts
30/11:30pm 16.6 10.1 8.8 60 4.0 N 33 39 18 21 1013.9 1013.9 0.0
30/11:00pm 16.4 9.7 9.8 65 3.5 N 35 41 19 22 1013.8 1013.8 0.0
30/10:30pm 16.6 10.4 10.0 65 3.5 N 33 37 18 20 1014.3 1014.3 0.0
30/10:00pm 16.4 10.6 10.7 69 3.0 N 32 35 17 19 1014.6 1014.6 0.0
30/09:30pm 16.5 10.6 11.0 70 2.9 N 33 37 18 20 1014.7 1014.7 0.0
30/09:00pm 16.3 10.5 11.5 73 2.6 N 33 37 18 20 1014.7 1014.7 0.0
30/08:30pm 16.3 10.2 11.9 75 2.4 N 35 41 19 22 1014.8 1014.8 0.0
30/08:00pm 15.9 10.5 12.1 78 2.1 N 32 37 17 20 1015.0 1015.0 0.0
30/07:30pm 15.7 10.2 11.9 78 2.1 N 32 35 17 19 1015.2 1015.2 0.0
30/07:00pm 15.8 10.3 11.8 77 2.2 NNE 32 35 17 19 1015.3 1015.3 0.0
30/06:30pm 15.9 10.4 11.7 76 2.3 NNE 32 35 17 19 1015.6 1015.5 0.0
30/06:00pm 16.0 10.5 11.8 76 2.3 NNE 32 37 17 20 1015.6 1015.5 0.0
30/05:30pm 15.9 10.7 11.7 76 2.3 NNE 30 33 16 18 1015.8 1015.7 0.0
30/05:00pm 15.9 11.9 11.9 77 2.2 NNE 24 32 13 17 1015.8 1015.7 0.0
30/04:30pm 16.0 11.2 11.8 76 2.3 NNE 28 35 15 19 1016.0 1016.0 0.0
30/04:00pm 16.7 12.0 12.0 74 2.6 NNE 28 33 15 18 1016.1 1016.1 0.0
30/03:30pm 17.3 12.7 12.2 72 2.8 NNE 28 35 15 19 1016.3 1016.3 0.0
30/03:00pm 17.5 12.8 12.0 70 3.0 NNE 28 32 15 17 1016.5 1016.5 0.0
30/02:30pm 17.7 12.4 12.4 71 2.9 NNE 32 37 17 20 1016.8 1016.8 0.0
30/02:00pm 17.2 12.4 11.5 69 3.1 NNE 28 33 15 18 1017.2 1017.2 0.0
30/01:30pm 18.4 14.7 12.6 69 3.2 N 24 28 13 15 1017.8 1017.8 0.0
30/01:00pm 18.2 14.0 12.4 69 3.2 N 26 30 14 16 1018.4 1018.4 0.0
30/12:30pm 17.4 11.8 11.4 68 3.3 N 32 37 17 20 1018.7 1018.7 0.0
30/12:00pm 17.6 12.0 11.6 68 3.3 NNE 32 35 17 19 1019.1 1019.1 0.0
30/11:30am 17.8 12.3 12.0 69 3.2 NNE 32 35 17 19 1019.4 1019.4 0.0
30/11:00am 17.5 12.7 11.8 69 3.1 N 28 32 15 17 1020.0 1020.0 0.0
30/10:30am 16.8 11.2 11.5 71 2.9 N 32 35 17 19 1020.1 1020.1 0.0
30/10:00am 17.2 11.5 11.2 68 3.2 N 32 37 17 20 1020.4 1020.4 0.0
30/09:30am 17.1 11.7 10.9 67 3.3 N 30 33 16 18 1020.6 1020.6 0.0
30/09:00am 16.5 11.6 11.2 71 2.8 N 28 32 15 17 1020.8 1020.8 0.0
30/08:30am 16.3 11.0 11.2 72 2.7 N 30 33 16 18 1021.0 1021.0 0.0
30/08:00am 15.8 10.5 9.9 68 3.1 N 28 32 15 17 1020.8 1020.8 0.0
30/07:30am 15.5 10.8 10.5 72 2.6 N 26 30 14 16 1020.5 1020.5 0.0
30/07:00am 15.2 9.8 10.8 75 2.3 N 30 32 16 17 1020.2 1020.2 0.0
30/06:30am 15.2 10.1 10.6 74 2.4 N 28 32 15 17 1020.2 1020.2 0.0
30/06:00am 15.4 10.4 11.0 75 2.3 N 28 32 15 17 1020.1 1020.1 0.0
30/05:30am 15.1 10.3 11.5 79 1.9 N 28 32 15 17 1020.1 1020.1 0.0
30/05:00am 15.1 9.6 11.7 80 1.8 N 32 33 17 18 1020.1 1020.1 0.0
30/04:30am 15.1 9.6 11.9 81 1.7 N 32 35 17 19 1020.2 1020.2 0.0
30/04:00am 15.2 9.7 11.8 80 1.8 N 32 35 17 19 1020.5 1020.5 0.0
30/03:30am 15.4 10.3 12.0 80 1.8 N 30 33 16 18 1020.8 1020.8 0.0
30/03:00am 15.4 9.9 12.0 80 1.8 N 32 35 17 19 1021.1 1021.1 0.0
30/02:30am 15.5 10.0 11.9 79 1.9 NNE 32 35 17 19 1021.4 1021.4 0.0
30/02:00am 15.5 10.8 12.1 80 1.9 NNE 28 33 15 18 1021.5 1021.5 0.0
30/01:30am 15.6 10.6 12.2 80 1.9 NNE 30 39 16 21 1021.7 1021.7 0.0
30/01:00am 15.7 10.3 12.3 80 1.9 NNE 32 41 17 22 1021.6 1021.6 0.0
30/12:30am 15.7 10.1 12.1 79 2.0 NNE 33 39 18 21 1021.7 1021.7 0.0
30/12:00am 15.6 10.2 12.2 80 1.9 NNE 32 37 17 20 1021.9 1021.9 0.0
 
Date/Time
CST
Temp
°C
App
Temp
°C
Dew
Point
Rel
Hum
%
Delta-T
°C
Wind Press
QNH
hPa
Press
MSL
hPa
Rain
since 9 am
mm
Dir
 
Spd
km/h
Gust
km/h
Spd
kts
Gust
kts
29/11:30pm 15.4 9.8 12.2 81 1.7 NNE 33 37 18 20 1022.1 1022.1 0.0

Other Formats:

Comma delimited format used in spreadsheet applications
http://www.bom.gov.au/fwo/IDS60801/IDS60801.94804.axf

JavaScript Object Notation format (JSON) in row-major order
http://www.bom.gov.au/fwo/IDS60801/IDS60801.94804.json